Time;durP1;ratioP1;P1;durP2;ratioP2;P2;SDS_P1;SDS_P2;PMS_P1;PMS_P2;Temp;Humidity;BMP_temperature;BMP_pressure;BME280_temperature;BME280_humidity;BME280_pressure;Samples;Min_cycle;Max_cycle;Signal;HPM_P1;HPM_P2
2021/03/06 00:01:54;;;;;;;77.40;21.10;;;-5.20;99.90;;;;;;4447560;28;659086;-64
2021/03/06 00:04:41;;;;;;;101.37;25.40;;;-5.30;99.90;;;;;;4458835;28;658645;-64
2021/03/06 00:07:28;;;;;;;103.90;25.63;;;-5.30;99.90;;;;;;4440585;28;659997;-64
2021/03/06 00:10:18;;;;;;;153.33;32.93;;;-5.40;99.90;;;;;;4463717;28;661542;-64
2021/03/06 00:13:05;;;;;;;142.73;32.72;;;-5.40;99.90;;;;;;4440640;28;660191;-64
2021/03/06 00:15:52;;;;;;;156.07;38.47;;;-5.50;99.90;;;;;;4439497;28;659440;-63
2021/03/06 00:18:40;;;;;;;111.03;28.15;;;-5.50;99.90;;;;;;4466874;28;659768;-64
2021/03/06 00:21:27;;;;;;;122.87;29.17;;;-5.60;99.90;;;;;;4439945;28;659376;-62
2021/03/06 00:24:14;;;;;;;167.68;35.22;;;-5.60;99.90;;;;;;4467686;28;660610;-64
2021/03/06 00:27:01;;;;;;;125.25;28.00;;;-5.60;99.90;;;;;;4462235;28;660325;-64
2021/03/06 00:29:48;;;;;;;72.63;20.92;;;-5.60;99.90;;;;;;4437853;28;659845;-64
2021/03/06 00:32:35;;;;;;;59.20;20.53;;;-5.70;99.90;;;;;;4464553;28;660682;-64
2021/03/06 00:35:23;;;;;;;67.10;20.07;;;-5.70;99.90;;;;;;4445101;28;658798;-62
2021/03/06 00:38:10;;;;;;;60.93;19.53;;;-5.80;99.90;;;;;;4462847;28;660151;-63
2021/03/06 00:40:57;;;;;;;69.07;18.33;;;-5.80;99.90;;;;;;4432069;28;659485;-63
2021/03/06 00:43:44;;;;;;;56.73;18.77;;;-5.70;99.90;;;;;;4468395;28;659388;-63
2021/03/06 00:46:31;;;;;;;59.27;17.53;;;-5.70;99.90;;;;;;4458703;28;658555;-64
2021/03/06 00:49:18;;;;;;;59.57;17.40;;;-5.80;99.90;;;;;;4439833;28;658569;-63
2021/03/06 00:52:07;;;;;;;61.77;18.07;;;-5.80;99.90;;;;;;4459816;28;659918;-64
2021/03/06 00:54:53;;;;;;;63.90;18.73;;;-5.80;99.90;;;;;;4437861;28;658973;-63
2021/03/06 00:57:40;;;;;;;65.03;18.27;;;-5.80;99.90;;;;;;4463981;28;659927;-64
2021/03/06 01:00:28;;;;;;;64.73;19.40;;;-5.90;99.90;;;;;;4443122;28;659191;-63
2021/03/06 01:03:15;;;;;;;48.27;17.00;;;-5.90;99.90;;;;;;4461449;28;660054;-64
2021/03/06 01:06:02;;;;;;;58.50;17.77;;;-6.00;99.90;;;;;;4464238;28;659568;-64
2021/03/06 01:08:50;;;;;;;86.03;23.23;;;-6.00;99.90;;;;;;4457972;28;659095;-64
2021/03/06 01:11:38;;;;;;;65.82;19.38;;;-6.00;99.90;;;;;;4446529;28;659787;-62
2021/03/06 01:14:26;;;;;;;58.10;18.83;;;-6.00;99.90;;;;;;4466552;28;659784;-64
2021/03/06 01:17:13;;;;;;;154.83;34.20;;;-6.00;99.90;;;;;;4436302;28;659874;-63
2021/03/06 01:20:00;;;;;;;116.13;28.77;;;-5.90;99.90;;;;;;4459377;28;660254;-64
2021/03/06 01:22:48;;;;;;;69.87;21.20;;;-5.90;99.90;;;;;;4442400;28;659653;-63
2021/03/06 01:25:36;;;;;;;53.83;18.67;;;-5.90;99.90;;;;;;4452572;28;659832;-63
2021/03/06 01:28:23;;;;;;;67.50;22.23;;;-5.90;99.90;;;;;;4427423;28;659259;-64
2021/03/06 01:31:10;;;;;;;57.50;20.90;;;-5.90;99.90;;;;;;4456326;28;660429;-64
2021/03/06 01:33:57;;;;;;;104.68;27.77;;;-5.90;99.90;;;;;;4428924;28;658920;-62
2021/03/06 01:36:45;;;;;;;68.03;21.83;;;-5.90;99.90;;;;;;4459118;28;660607;-64
2021/03/06 01:39:32;;;;;;;64.93;21.10;;;-5.90;99.90;;;;;;4436673;28;658828;-63
2021/03/06 01:42:20;;;;;;;56.63;18.60;;;-5.90;99.90;;;;;;4466660;28;659385;-64
2021/03/06 01:45:08;;;;;;;56.33;20.13;;;-5.90;99.90;;;;;;4444450;28;658587;-63
2021/03/06 01:47:55;;;;;;;59.20;20.37;;;-5.90;99.90;;;;;;4463115;28;660594;-64
2021/03/06 01:50:43;;;;;;;77.73;23.93;;;-6.00;99.90;;;;;;4437562;28;658705;-63
2021/03/06 01:53:30;;;;;;;58.57;20.13;;;-5.90;99.90;;;;;;4455785;28;658620;-64
2021/03/06 01:56:17;;;;;;;58.57;19.17;;;-6.00;99.90;;;;;;4444396;28;658625;-63
2021/03/06 01:59:05;;;;;;;56.03;20.63;;;-6.00;99.90;;;;;;4448879;28;659542;-64
2021/03/06 02:01:52;;;;;;;54.10;19.40;;;-6.00;99.90;;;;;;4442780;28;659118;-63
2021/03/06 02:04:39;;;;;;;63.13;20.85;;;-6.00;99.90;;;;;;4466150;28;658678;-64
2021/03/06 02:07:26;;;;;;;67.37;22.97;;;-6.00;99.90;;;;;;4463204;28;659097;-64
2021/03/06 02:10:14;;;;;;;67.13;20.63;;;-6.00;99.90;;;;;;4436845;28;658338;-63
2021/03/06 02:13:27;;;;;;;58.50;20.47;;;-6.00;99.90;;;;;;4463820;28;659617;-64
2021/03/06 02:16:20;;;;;;;52.07;18.73;;;-6.00;99.90;;;;;;4437058;28;659214;-64
2021/03/06 02:19:15;;;;;;;59.30;21.40;;;-6.10;99.90;;;;;;4413080;28;658700;-63
2021/03/06 02:22:11;;;;;;;56.77;19.33;;;-6.20;99.90;;;;;;4424844;28;659660;-63
2021/03/06 02:25:06;;;;;;;74.63;25.10;;;-6.30;99.90;;;;;;4440507;28;659630;-64
2021/03/06 02:27:58;;;;;;;63.20;21.47;;;-6.30;99.90;;;;;;4437250;28;659525;-63
2021/03/06 02:30:46;;;;;;;70.93;23.90;;;-6.50;99.90;;;;;;4440690;28;659334;-64
2021/03/06 02:33:35;;;;;;;61.40;21.43;;;-6.60;99.90;;;;;;4442724;28;658417;-64
2021/03/06 02:36:23;;;;;;;61.25;20.52;;;-6.60;99.90;;;;;;4437978;28;658673;-63
2021/03/06 02:39:12;;;;;;;55.07;19.20;;;-6.70;99.90;;;;;;4462381;28;659994;-64
2021/03/06 02:42:00;;;;;;;53.60;19.60;;;-6.70;99.90;;;;;;4434258;28;659936;-64
2021/03/06 02:44:48;;;;;;;54.63;17.80;;;-6.70;99.90;;;;;;4454816;28;658728;-63
2021/03/06 02:47:36;;;;;;;51.43;18.07;;;-6.80;99.90;;;;;;4458460;28;660520;-64
2021/03/06 02:50:23;;;;;;;48.50;17.97;;;-6.80;99.90;;;;;;4432521;28;658785;-63
2021/03/06 02:53:10;;;;;;;44.50;17.30;;;-6.80;99.90;;;;;;4457631;28;660481;-64
2021/03/06 02:55:56;;;;;;;48.67;17.90;;;-6.80;99.90;;;;;;4458908;28;659129;-64
2021/03/06 02:58:52;;;;;;;47.83;19.03;;;-6.80;99.90;;;;;;4442790;28;660767;-63
2021/03/06 03:01:47;;;;;;;55.10;19.37;;;-6.70;99.90;;;;;;4414685;28;660386;-64
2021/03/06 03:04:40;;;;;;;51.93;19.87;;;-6.70;99.90;;;;;;4419864;28;659918;-64
2021/03/06 03:07:30;;;;;;;47.17;18.67;;;-6.70;99.90;;;;;;4436462;28;658518;-63
2021/03/06 03:10:18;;;;;;;45.37;17.93;;;-6.70;99.90;;;;;;4439723;28;659189;-63
2021/03/06 03:13:09;;;;;;;60.97;19.10;;;-6.70;99.90;;;;;;4463002;28;659678;-64
2021/03/06 03:16:03;;;;;;;58.13;20.13;;;-6.80;99.90;;;;;;4434426;28;660152;-64
2021/03/06 03:18:54;;;;;;;57.93;19.30;;;-6.80;99.90;;;;;;4441680;28;659278;-64
2021/03/06 03:21:44;;;;;;;54.73;18.57;;;-6.80;99.90;;;;;;4436950;28;659129;-64
2021/03/06 03:24:34;;;;;;;53.93;20.40;;;-6.80;99.90;;;;;;4441265;28;659241;-64
2021/03/06 03:27:21;;;;;;;51.45;18.15;;;-6.80;99.90;;;;;;4432958;28;659185;-64
2021/03/06 03:30:09;;;;;;;56.58;19.23;;;-6.80;99.90;;;;;;4443813;28;659417;-64
2021/03/06 03:32:56;;;;;;;54.10;19.52;;;-6.90;99.90;;;;;;4465519;28;659342;-64
2021/03/06 03:35:44;;;;;;;49.60;18.10;;;-6.80;99.90;;;;;;4446297;28;660496;-64
2021/03/06 03:38:32;;;;;;;52.60;18.00;;;-6.90;99.90;;;;;;4464294;28;659197;-64
2021/03/06 03:41:19;;;;;;;45.55;18.08;;;-6.90;99.90;;;;;;4439199;28;659857;-64
2021/03/06 03:44:07;;;;;;;52.88;19.05;;;-6.90;99.90;;;;;;4463929;28;659262;-64
2021/03/06 03:46:54;;;;;;;58.47;18.80;;;-6.90;99.90;;;;;;4434875;28;660753;-64
2021/03/06 03:49:41;;;;;;;83.30;25.60;;;-7.00;99.90;;;;;;4457312;28;659294;-58
2021/03/06 03:52:28;;;;;;;60.10;20.27;;;-6.90;99.90;;;;;;4443092;28;658487;-58
2021/03/06 03:55:17;;;;;;;47.40;17.37;;;-6.90;99.90;;;;;;4464566;28;660208;-60
2021/03/06 03:58:04;;;;;;;45.47;19.07;;;-6.90;99.90;;;;;;4439593;28;658776;-59
2021/03/06 04:00:56;;;;;;;96.57;28.37;;;-6.90;99.90;;;;;;4464413;28;659692;-58
2021/03/06 04:03:43;;;;;;;63.77;21.00;;;-6.80;99.90;;;;;;4411539;28;659491;-60
2021/03/06 04:06:30;;;;;;;43.10;17.80;;;-6.80;99.90;;;;;;4465921;28;660458;-59
2021/03/06 04:09:17;;;;;;;49.90;18.67;;;-6.80;99.90;;;;;;4451344;28;658740;-60
2021/03/06 04:12:06;;;;;;;51.63;18.57;;;-6.80;99.90;;;;;;4470101;28;659467;-59
2021/03/06 04:14:53;;;;;;;50.77;18.27;;;-6.80;99.90;;;;;;4426685;28;658518;-59
2021/03/06 04:17:41;;;;;;;51.27;19.33;;;-6.80;99.90;;;;;;4463124;28;661055;-60
2021/03/06 04:20:28;;;;;;;48.00;18.83;;;-6.80;99.90;;;;;;4445262;28;659903;-59
2021/03/06 04:23:15;;;;;;;51.47;19.97;;;-6.80;99.90;;;;;;4466074;28;659692;-59
2021/03/06 04:26:02;;;;;;;53.67;20.98;;;-6.80;99.90;;;;;;4445562;28;658653;-61
2021/03/06 04:28:50;;;;;;;60.65;21.85;;;-6.80;99.90;;;;;;4467003;28;658897;-59
2021/03/06 04:31:37;;;;;;;53.47;20.60;;;-6.70;99.90;;;;;;4440871;28;658676;-60
2021/03/06 04:34:24;;;;;;;49.90;19.13;;;-6.80;99.90;;;;;;4468414;28;658722;-58
2021/03/06 04:37:11;;;;;;;50.73;18.30;;;-6.80;99.90;;;;;;4456984;28;658643;-60
2021/03/06 04:39:59;;;;;;;48.70;17.67;;;-6.70;99.90;;;;;;4442182;28;658548;-60
2021/03/06 04:42:46;;;;;;;45.27;17.87;;;-6.70;99.90;;;;;;4464025;28;658958;-59
2021/03/06 04:45:34;;;;;;;50.93;18.50;;;-6.70;99.90;;;;;;4438024;28;658658;-60
2021/03/06 04:48:21;;;;;;;51.27;19.30;;;-6.70;99.90;;;;;;4456703;28;659447;-60
2021/03/06 04:51:08;;;;;;;84.00;28.13;;;-6.70;99.90;;;;;;4437938;28;659730;-59
2021/03/06 04:53:56;;;;;;;56.50;20.10;;;-6.70;99.90;;;;;;4456280;28;660503;-58
2021/03/06 04:56:43;;;;;;;46.83;17.73;;;-6.70;99.90;;;;;;4445669;28;658532;-60
2021/03/06 04:59:30;;;;;;;44.90;18.23;;;-6.80;99.90;;;;;;4461241;28;659983;-59
2021/03/06 05:02:18;;;;;;;47.47;19.17;;;-6.80;99.90;;;;;;4458868;28;659276;-60
2021/03/06 05:05:06;;;;;;;42.40;17.42;;;-6.80;99.90;;;;;;4464035;28;659770;-59
2021/03/06 05:07:53;;;;;;;52.83;18.27;;;-6.90;99.90;;;;;;4437040;28;658860;-59
2021/03/06 05:10:40;;;;;;;44.77;17.57;;;-6.90;99.90;;;;;;4466862;28;659518;-59
2021/03/06 05:13:27;;;;;;;43.07;17.27;;;-6.90;99.90;;;;;;4454467;28;659098;-60
2021/03/06 05:16:14;;;;;;;49.97;18.40;;;-6.90;99.90;;;;;;4460283;28;658349;-59
2021/03/06 05:19:02;;;;;;;49.50;17.50;;;-6.90;99.90;;;;;;4462475;28;659637;-59
2021/03/06 05:21:49;;;;;;;54.17;19.58;;;-6.90;99.90;;;;;;4437477;28;659932;-59
2021/03/06 05:24:36;;;;;;;43.07;17.37;;;-6.90;99.90;;;;;;4457416;28;659569;-59
2021/03/06 05:27:23;;;;;;;55.63;18.63;;;-6.80;99.90;;;;;;4437402;28;658471;-59
2021/03/06 05:30:11;;;;;;;47.03;19.25;;;-6.80;99.90;;;;;;4462344;28;660438;-59
2021/03/06 05:32:58;;;;;;;55.10;20.20;;;-6.80;99.90;;;;;;4442746;28;658796;-59
2021/03/06 05:35:46;;;;;;;51.67;18.97;;;-6.80;99.90;;;;;;4462955;28;659919;-59
2021/03/06 05:38:33;;;;;;;50.43;19.13;;;-6.70;99.90;;;;;;4439034;28;659033;-59
2021/03/06 05:41:20;;;;;;;47.65;18.75;;;-6.70;99.90;;;;;;4465026;28;659175;-60
2021/03/06 05:44:08;;;;;;;57.50;19.27;;;-6.60;99.90;;;;;;4438796;28;659590;-60
2021/03/06 05:46:56;;;;;;;59.80;21.57;;;-6.50;99.90;;;;;;4463445;28;659941;-60
2021/03/06 05:49:43;;;;;;;50.13;19.67;;;-6.50;99.90;;;;;;4436338;28;658459;-61
2021/03/06 05:52:31;;;;;;;47.40;19.37;;;-6.30;99.90;;;;;;4465036;28;659377;-60
2021/03/06 05:55:19;;;;;;;53.80;20.43;;;-6.30;99.90;;;;;;4439834;28;658630;-60
2021/03/06 05:58:06;;;;;;;52.77;20.33;;;-6.20;99.90;;;;;;4461834;28;659696;-60
2021/03/06 06:00:53;;;;;;;49.60;19.67;;;-6.10;99.90;;;;;;4443649;28;659588;-57
2021/03/06 06:03:40;;;;;;;54.53;21.07;;;-6.00;99.90;;;;;;4459484;28;659664;-54
2021/03/06 06:06:28;;;;;;;56.53;21.67;;;-5.90;99.90;;;;;;4449787;28;659071;-57
2021/03/06 06:09:16;;;;;;;58.13;22.07;;;-5.80;99.90;;;;;;4459686;28;658950;-55
2021/03/06 06:12:06;;;;;;;72.27;24.10;;;-5.70;99.90;;;;;;4436201;28;658915;-56
2021/03/06 06:14:53;;;;;;;62.40;23.07;;;-5.60;99.90;;;;;;4431715;28;659699;-57
2021/03/06 06:17:40;;;;;;;64.50;25.93;;;-5.40;99.90;;;;;;4467893;28;660530;-55
2021/03/06 06:20:27;;;;;;;62.33;24.30;;;-5.30;99.90;;;;;;4441235;28;660391;-58
2021/03/06 06:23:15;;;;;;;61.90;25.83;;;-5.20;99.90;;;;;;4464909;28;659545;-56
2021/03/06 06:26:11;;;;;;;67.07;26.70;;;-5.00;99.90;;;;;;4438174;28;658578;-57
2021/03/06 06:28:58;;;;;;;77.87;28.83;;;-4.90;99.90;;;;;;4421579;28;659573;-58
2021/03/06 06:31:52;;;;;;;64.15;25.35;;;-4.70;99.90;;;;;;4458625;28;659995;-57
2021/03/06 06:34:40;;;;;;;70.93;29.50;;;-4.50;99.90;;;;;;4410419;28;660581;-57
2021/03/06 06:37:29;;;;;;;69.60;29.60;;;-4.30;99.90;;;;;;4449027;28;658997;-58
2021/03/06 06:40:17;;;;;;;70.33;29.57;;;-4.10;99.90;;;;;;4463080;28;659776;-55
2021/03/06 06:43:23;;;;;;;65.47;27.30;;;-3.90;99.90;;;;;;4444779;28;659869;-57
2021/03/06 06:46:13;;;;;;;83.37;32.43;;;-3.70;99.90;;;;;;4435904;28;660054;-57
2021/03/06 06:49:00;;;;;;;80.50;33.37;;;-3.40;99.90;;;;;;4435055;28;660307;-56
2021/03/06 06:52:00;;;;;;;79.20;32.40;;;-3.20;99.90;;;;;;4462200;28;659535;-57
2021/03/06 06:54:54;;;;;;;85.47;31.60;;;-3.10;99.90;;;;;;4428123;28;659127;-58
2021/03/06 06:57:48;;;;;;;88.33;34.50;;;-2.90;99.90;;;;;;4440605;28;659215;-57
2021/03/06 07:00:36;;;;;;;87.93;37.03;;;-2.70;99.90;;;;;;4439401;28;659882;-58
2021/03/06 07:03:23;;;;;;;80.83;35.70;;;-2.60;99.90;;;;;;4438707;28;659361;-59
2021/03/06 07:06:13;;;;;;;85.63;35.40;;;-2.50;99.90;;;;;;4456940;28;660722;-57
2021/03/06 07:09:10;;;;;;;74.53;34.83;;;-2.30;99.90;;;;;;4431796;28;659853;-58
2021/03/06 07:11:57;;;;;;;73.63;33.27;;;-2.10;99.90;;;;;;4432680;28;658951;-58
2021/03/06 07:14:43;;;;;;;82.80;31.67;;;-1.80;99.90;;;;;;4444489;28;658693;-57
2021/03/06 07:17:39;;;;;;;69.77;30.00;;;-1.60;99.90;;;;;;4456692;28;660214;-57
2021/03/06 07:20:44;;;;;;;64.53;21.77;;;-1.40;99.90;;;;;;4435422;28;658585;-58
2021/03/06 07:23:31;;;;;;;62.77;28.63;;;-1.20;99.90;;;;;;4440156;28;658936;-58
2021/03/06 07:26:18;;;;;;;70.77;28.13;;;-1.30;99.90;;;;;;4439414;28;658877;-58
2021/03/06 07:29:05;;;;;;;33.40;14.43;;;-1.00;99.90;;;;;;4466008;28;660336;-58
2021/03/06 07:31:53;;;;;;;59.80;24.63;;;-0.90;99.90;;;;;;4446127;28;660134;-58
2021/03/06 07:34:41;;;;;;;51.00;19.90;;;-0.70;99.90;;;;;;4459812;28;659936;-57
2021/03/06 07:37:29;;;;;;;50.10;20.53;;;-0.60;99.90;;;;;;4446137;28;658754;-59
2021/03/06 07:40:19;;;;;;;56.33;25.13;;;-0.70;99.90;;;;;;4464409;28;660002;-58
2021/03/06 07:43:10;;;;;;;53.10;21.33;;;-0.80;99.90;;;;;;4435361;28;659825;-57
2021/03/06 07:45:58;;;;;;;58.23;24.43;;;-0.50;99.90;;;;;;4437556;28;658941;-59
2021/03/06 07:48:48;;;;;;;65.10;25.52;;;-0.40;99.90;;;;;;4460515;28;659691;-57
2021/03/06 07:51:37;;;;;;;59.07;22.27;;;-0.40;99.90;;;;;;4429952;28;660422;-57
2021/03/06 07:54:24;;;;;;;45.47;17.03;;;-0.40;99.90;;;;;;4442447;28;658738;-58
2021/03/06 07:57:11;;;;;;;86.77;33.27;;;-0.40;99.90;;;;;;4461910;28;659614;-57
2021/03/06 07:59:58;;;;;;;80.63;31.23;;;-0.50;99.90;;;;;;4446496;28;659243;-59
2021/03/06 08:02:44;;;;;;;86.27;32.33;;;-0.30;99.90;;;;;;4465873;28;660205;-58
2021/03/06 08:05:47;;;;;;;63.97;23.90;;;-0.20;99.90;;;;;;4434607;28;659675;-58
2021/03/06 08:09:03;;;;;;;88.13;35.47;;;-0.20;99.90;;;;;;4418482;28;658628;-58
2021/03/06 08:11:50;;;;;;;66.17;27.90;;;-0.20;99.90;;;;;;4421304;28;658784;-57
2021/03/06 08:14:42;;;;;;;76.83;31.07;;;0.10;99.90;;;;;;4437553;28;658709;-59
2021/03/06 08:17:33;;;;;;;47.03;19.57;;;0.30;99.90;;;;;;4428958;28;658519;-59
2021/03/06 08:20:24;;;;;;;37.00;17.50;;;0.40;99.90;;;;;;4424713;28;659057;-58
2021/03/06 08:23:21;;;;;;;40.03;17.87;;;0.40;99.90;;;;;;4423391;28;659322;-56
2021/03/06 08:26:28;;;;;;;44.13;17.63;;;0.40;99.90;;;;;;4401021;28;658954;-57
2021/03/06 08:29:34;;;;;;;66.03;28.00;;;0.40;99.90;;;;;;4424326;28;657955;-56
2021/03/06 08:32:29;;;;;;;37.23;10.93;;;0.40;99.90;;;;;;4414307;28;658876;-56
2021/03/06 08:35:20;;;;;;;58.03;24.73;;;0.50;99.90;;;;;;4424616;28;658693;-54
2021/03/06 08:38:25;;;;;;;41.47;13.15;;;0.80;99.90;;;;;;4403660;28;658110;-59
2021/03/06 08:41:12;;;;;;;23.87;11.03;;;1.00;99.90;;;;;;4402306;28;657597;-56
2021/03/06 08:44:00;;;;;;;41.40;14.13;;;1.20;99.90;;;;;;4448052;28;658477;-56
2021/03/06 08:46:47;;;;;;;70.63;29.43;;;1.10;99.90;;;;;;4430258;28;657666;-58
2021/03/06 08:49:34;;;;;;;29.83;11.83;;;1.50;99.90;;;;;;4447175;28;659341;-57
2021/03/06 08:52:22;;;;;;;31.63;12.93;;;1.30;99.90;;;;;;4447802;28;657957;-57
2021/03/06 08:55:10;;;;;;;66.00;27.37;;;1.20;99.90;;;;;;4430894;28;657676;-57
2021/03/06 08:58:00;;;;;;;31.23;13.50;;;1.20;99.90;;;;;;4436399;28;657440;-59
2021/03/06 09:00:49;;;;;;;53.87;23.40;;;1.50;99.90;;;;;;4433369;28;658724;-59
2021/03/06 09:03:36;;;;;;;53.70;21.27;;;1.70;99.90;;;;;;4441413;28;658775;-58
2021/03/06 09:06:23;;;;;;;59.27;23.80;;;2.00;99.90;;;;;;4424057;28;658604;-59
2021/03/06 09:09:11;;;;;;;49.67;21.40;;;1.90;99.90;;;;;;4451471;28;659090;-58
2021/03/06 09:11:58;;;;;;;19.07;9.07;;;2.60;99.90;;;;;;4429116;28;657660;-57
2021/03/06 09:14:46;;;;;;;57.87;24.30;;;2.40;99.90;;;;;;4435638;28;657215;-56
2021/03/06 09:17:34;;;;;;;46.70;19.90;;;2.20;99.90;;;;;;4442074;28;658500;-57
2021/03/06 09:20:21;;;;;;;45.83;19.80;;;2.50;99.90;;;;;;4465626;28;658572;-58
2021/03/06 09:23:08;;;;;;;48.63;21.03;;;2.80;99.90;;;;;;4431555;28;658402;-58
2021/03/06 09:25:55;;;;;;;47.13;21.37;;;3.70;99.90;;;;;;4448217;28;658562;-58
2021/03/06 09:28:42;;;;;;;45.72;19.92;;;4.40;99.90;;;;;;4435669;28;657641;-58
2021/03/06 09:31:30;;;;;;;35.03;15.80;;;4.30;99.90;;;;;;4463136;28;659418;-53
2021/03/06 09:34:27;;;;;;;48.07;20.30;;;3.10;99.90;;;;;;4429400;28;657450;-56
2021/03/06 09:37:14;;;;;;;45.20;20.27;;;2.50;99.90;;;;;;4435354;28;658450;-54
2021/03/06 09:40:16;;;;;;;50.10;20.80;;;2.30;99.90;;;;;;4452177;28;657507;-57
2021/03/06 09:43:03;;;;;;;45.20;18.73;;;2.40;99.90;;;;;;4412207;28;659014;-58
2021/03/06 09:45:50;;;;;;;34.93;14.03;;;3.10;99.90;;;;;;4448420;28;659535;-56
2021/03/06 09:48:37;;;;;;;45.63;18.60;;;3.80;99.90;;;;;;4447677;28;657490;-59
2021/03/06 09:51:36;;;;;;;24.45;11.27;;;4.60;99.90;;;;;;4452796;28;658429;-56
2021/03/06 09:54:24;;;;;;;46.07;17.53;;;4.50;99.90;;;;;;4402862;28;659448;-55
2021/03/06 09:57:11;;;;;;;28.95;11.60;;;4.00;99.90;;;;;;4447701;28;657697;-56
2021/03/06 09:59:58;;;;;;;40.33;16.63;;;3.60;99.90;;;;;;4418960;28;657525;-55
2021/03/06 10:02:48;;;;;;;41.50;16.90;;;3.10;99.90;;;;;;4449044;28;658448;-57
2021/03/06 10:05:35;;;;;;;39.87;17.83;;;2.90;99.90;;;;;;4426021;28;658834;-55
2021/03/06 10:08:24;;;;;;;18.77;8.43;;;3.40;99.90;;;;;;4433025;28;657908;-59
2021/03/06 10:11:12;;;;;;;20.53;8.30;;;3.60;99.90;;;;;;4449360;28;658414;-54
2021/03/06 10:13:59;;;;;;;24.77;7.93;;;2.80;99.90;;;;;;4426382;28;657462;-55
2021/03/06 10:16:48;;;;;;;23.57;9.73;;;2.80;99.90;;;;;;4444180;28;656595;-56
2021/03/06 10:19:45;;;;;;;41.50;17.83;;;3.00;99.90;;;;;;4426785;28;657420;-53
2021/03/06 10:22:42;;;;;;;22.40;7.47;;;3.10;99.90;;;;;;4416903;28;657825;-58
2021/03/06 10:25:30;;;;;;;38.70;14.53;;;3.20;99.90;;;;;;4403762;28;657672;-55
2021/03/06 10:28:17;;;;;;;14.97;6.27;;;2.70;99.90;;;;;;4437268;28;658125;-58
2021/03/06 10:31:05;;;;;;;22.57;8.57;;;2.60;99.90;;;;;;4453971;28;658100;-57
2021/03/06 10:33:52;;;;;;;35.67;13.93;;;2.50;99.90;;;;;;4449375;28;657011;-53
2021/03/06 10:36:39;;;;;;;33.93;10.27;;;2.40;99.90;;;;;;4429197;28;657937;-52
2021/03/06 10:39:26;;;;;;;24.33;9.17;;;2.40;99.90;;;;;;4448103;28;658528;-56
2021/03/06 10:42:14;;;;;;;38.20;14.83;;;2.40;99.90;;;;;;4430071;28;656496;-57
2021/03/06 10:45:01;;;;;;;39.90;15.27;;;2.10;99.90;;;;;;4448165;28;658104;-51
2021/03/06 10:47:52;;;;;;;36.53;13.93;;;2.00;99.90;;;;;;4428813;28;658733;-56
2021/03/06 10:50:39;;;;;;;34.50;13.77;;;2.20;99.90;;;;;;4429257;28;657817;-55
2021/03/06 10:53:27;;;;;;;33.40;14.47;;;2.30;99.90;;;;;;4447418;28;658262;-55
2021/03/06 10:56:21;;;;;;;30.67;15.10;;;2.20;99.90;;;;;;4425511;28;658577;-59
2021/03/06 10:59:09;;;;;;;29.37;12.47;;;2.20;99.90;;;;;;4428682;28;657859;-58
2021/03/06 11:01:57;;;;;;;32.07;13.97;;;2.40;99.90;;;;;;4447997;28;657682;-56
2021/03/06 11:04:44;;;;;;;39.93;14.73;;;2.60;99.90;;;;;;4426557;28;657872;-55
2021/03/06 11:07:32;;;;;;;34.70;13.57;;;3.10;99.90;;;;;;4447637;28;657856;-57
2021/03/06 11:10:19;;;;;;;26.70;10.43;;;3.40;99.90;;;;;;4431942;28;658892;-58
2021/03/06 11:13:06;;;;;;;26.60;10.37;;;3.30;99.90;;;;;;4451027;28;658077;-57
2021/03/06 11:15:56;;;;;;;32.07;12.73;;;3.10;99.90;;;;;;4432579;28;657843;-58
2021/03/06 11:18:43;;;;;;;31.40;13.70;;;3.00;99.90;;;;;;4431759;28;658792;-56
2021/03/06 11:21:30;;;;;;;26.30;11.47;;;2.80;99.90;;;;;;4450479;28;659730;-57
2021/03/06 11:24:18;;;;;;;31.73;12.00;;;2.60;99.90;;;;;;4432430;28;658100;-56
2021/03/06 11:27:06;;;;;;;28.13;11.73;;;2.40;99.90;;;;;;4451279;28;659031;-58
2021/03/06 11:29:53;;;;;;;24.87;11.57;;;2.20;99.90;;;;;;4431823;28;657853;-56
2021/03/06 11:32:42;;;;;;;30.53;12.20;;;2.10;99.90;;;;;;4454907;28;659454;-57
2021/03/06 11:35:29;;;;;;;28.27;11.90;;;2.10;99.90;;;;;;4431982;28;659084;-52
2021/03/06 11:38:17;;;;;;;22.92;11.45;;;2.20;99.90;;;;;;4450455;28;657769;-58
2021/03/06 11:41:05;;;;;;;22.67;11.13;;;2.90;99.90;;;;;;4429736;28;658106;-58
2021/03/06 11:43:52;;;;;;;23.70;10.13;;;3.90;99.90;;;;;;4450561;28;657943;-54
2021/03/06 11:46:39;;;;;;;27.20;12.90;;;4.50;99.90;;;;;;4431989;28;659126;-56
2021/03/06 11:49:27;;;;;;;33.60;13.93;;;4.70;99.90;;;;;;4450542;28;658319;-57
2021/03/06 11:52:14;;;;;;;29.07;12.87;;;4.40;99.90;;;;;;4431712;28;657395;-57
2021/03/06 11:55:01;;;;;;;22.80;10.97;;;4.50;97.20;;;;;;4450570;28;659151;-56
2021/03/06 11:57:48;;;;;;;22.30;10.47;;;4.60;97.10;;;;;;4432309;28;658832;-57
2021/03/06 12:00:36;;;;;;;30.93;11.67;;;5.00;95.60;;;;;;4449623;28;659383;-57
2021/03/06 12:03:23;;;;;;;20.63;9.03;;;5.50;96.40;;;;;;4431398;28;658444;-58
2021/03/06 12:06:11;;;;;;;20.37;9.33;;;6.30;92.10;;;;;;4455528;28;657899;-57
2021/03/06 12:08:58;;;;;;;15.03;5.93;;;6.30;92.20;;;;;;4432460;28;656565;-55
2021/03/06 12:11:45;;;;;;;14.40;6.93;;;6.10;82.60;;;;;;4450768;28;658335;-55
2021/03/06 12:14:32;;;;;;;11.83;5.63;;;5.40;88.00;;;;;;4447068;28;656558;-58
2021/03/06 12:17:19;;;;;;;14.80;6.57;;;4.50;84.90;;;;;;4455265;28;656405;-56
2021/03/06 12:20:07;;;;;;;16.90;7.07;;;4.10;90.90;;;;;;4450605;28;656483;-56
2021/03/06 12:22:55;;;;;;;15.77;7.13;;;4.00;91.70;;;;;;4432272;28;658040;-55
2021/03/06 12:25:42;;;;;;;12.53;6.37;;;3.70;92.40;;;;;;4432238;28;656363;-58
2021/03/06 12:28:29;;;;;;;13.17;6.30;;;3.80;92.20;;;;;;4455174;28;658215;-57
2021/03/06 12:31:17;;;;;;;12.83;6.23;;;3.70;93.50;;;;;;4450873;28;656201;-56
2021/03/06 12:34:06;;;;;;;15.03;6.40;;;4.10;93.40;;;;;;4432069;28;657655;-56
2021/03/06 12:36:53;;;;;;;14.73;6.60;;;4.20;92.40;;;;;;4432459;28;656483;-58
2021/03/06 12:39:41;;;;;;;17.20;5.77;;;5.40;91.50;;;;;;4450901;28;658453;-55
2021/03/06 12:42:28;;;;;;;11.93;6.10;;;6.20;90.30;;;;;;4431784;28;657663;-58
2021/03/06 12:45:15;;;;;;;16.33;6.40;;;6.60;85.70;;;;;;4454931;28;658104;-58
2021/03/06 12:48:02;;;;;;;15.90;5.88;;;6.50;86.00;;;;;;4436245;28;657894;-58
2021/03/06 12:50:49;;;;;;;13.35;5.97;;;5.80;84.00;;;;;;4454428;28;656838;-55
2021/03/06 12:53:36;;;;;;;13.80;5.97;;;5.50;82.50;;;;;;4450286;28;657677;-57
2021/03/06 12:56:24;;;;;;;12.63;5.27;;;5.40;83.20;;;;;;4431582;28;656676;-58
2021/03/06 12:59:12;;;;;;;16.13;6.10;;;5.40;81.80;;;;;;4450686;28;657921;-57
2021/03/06 13:01:59;;;;;;;14.43;5.97;;;5.50;82.10;;;;;;4432244;28;657588;-53
2021/03/06 13:04:46;;;;;;;12.23;5.57;;;5.50;83.70;;;;;;4450664;28;656123;-55
2021/03/06 13:07:36;;;;;;;9.27;4.30;;;5.90;84.50;;;;;;4431423;28;656586;-57
2021/03/06 13:10:23;;;;;;;11.57;5.80;;;6.20;76.90;;;;;;4425666;28;655436;-56
2021/03/06 13:13:11;;;;;;;13.10;6.47;;;7.40;84.50;;;;;;4454360;28;657952;-57
2021/03/06 13:15:58;;;;;;;12.87;5.70;;;9.00;68.40;;;;;;4431493;28;657640;-58
2021/03/06 13:18:45;;;;;;;9.07;4.93;;;9.20;64.40;;;;;;4455074;28;658101;-57
2021/03/06 13:21:32;;;;;;;12.43;6.20;;;8.80;57.80;;;;;;4443656;28;655752;-58
2021/03/06 13:24:19;;;;;;;11.73;5.90;;;7.20;61.20;;;;;;4453830;28;656225;-55
2021/03/06 13:27:06;;;;;;;13.17;5.60;;;7.30;63.70;;;;;;4450429;28;656553;-56
2021/03/06 13:29:55;;;;;;;7.90;3.33;;;8.00;64.90;;;;;;4427022;28;657142;-54
2021/03/06 13:32:42;;;;;;;15.07;6.10;;;8.40;61.30;;;;;;4450239;28;656595;-57
2021/03/06 13:35:29;;;;;;;13.83;5.93;;;9.20;61.50;;;;;;4430710;28;656686;-55
2021/03/06 13:38:16;;;;;;;13.80;5.70;;;10.20;61.40;;;;;;4450115;28;656922;-58
2021/03/06 13:41:03;;;;;;;13.53;6.23;;;10.60;57.00;;;;;;4430042;28;657603;-59
2021/03/06 13:43:50;;;;;;;18.77;6.40;;;9.60;56.30;;;;;;4448538;28;658351;-54
2021/03/06 13:46:38;;;;;;;12.03;6.10;;;8.40;58.90;;;;;;4430849;28;656648;-58
2021/03/06 13:49:25;;;;;;;12.47;5.57;;;7.70;59.40;;;;;;4449341;28;658009;-56
2021/03/06 13:52:12;;;;;;;12.87;5.53;;;7.70;61.80;;;;;;4431250;28;656591;-59
2021/03/06 13:54:59;;;;;;;13.38;5.25;;;8.10;59.80;;;;;;4454034;28;656771;-56
2021/03/06 13:57:46;;;;;;;13.13;5.60;;;9.20;55.90;;;;;;4449279;28;657562;-57
2021/03/06 14:00:33;;;;;;;15.03;5.43;;;11.00;53.50;;;;;;4429898;28;656424;-58
2021/03/06 14:03:21;;;;;;;11.20;4.53;;;12.30;49.70;;;;;;4439993;28;658635;-58
2021/03/06 14:06:10;;;;;;;9.27;5.07;;;13.60;45.30;;;;;;4427669;28;657521;-58
2021/03/06 14:08:57;;;;;;;12.97;5.57;;;13.60;46.70;;;;;;4449087;28;657029;-55
2021/03/06 14:11:44;;;;;;;11.37;5.03;;;12.40;44.80;;;;;;4429488;28;657557;-56